Time;durP1;ratioP1;P1;durP2;ratioP2;P2;SDS_P1;SDS_P2;PMS_P1;PMS_P2;Temp;Humidity;BMP_temperature;BMP_pressure;BME280_temperature;BME280_humidity;BME280_pressure;Samples;Min_cycle;Max_cycle;Signal;HPM_P1;HPM_P2
2021/09/26 00:02:07;;;;;;;33.53;28.70;;;;;;;;;;5004795;28;20500;-91
2021/09/26 00:04:33;;;;;;;33.35;28.75;;;;;;;;;;5005508;28;20418;-91
2021/09/26 00:07:01;;;;;;;33.00;29.17;;;;;;;;;;5011097;28;20415;-92
2021/09/26 00:09:28;;;;;;;33.83;30.20;;;;;;;;;;5010372;28;20910;-90
2021/09/26 00:11:57;;;;;;;32.67;29.13;;;;;;;;;;5012030;28;20437;-91
2021/09/26 00:14:24;;;;;;;33.22;29.65;;;;;;;;;;5017191;28;20501;-92
2021/09/26 00:16:54;;;;;;;32.33;28.92;;;;;;;;;;5009769;28;21762;-91
2021/09/26 00:19:21;;;;;;;31.70;28.30;;;;;;;;;;5008820;28;20407;-91
2021/09/26 00:21:48;;;;;;;33.88;29.58;;;;;;;;;;5008982;28;20453;-90
2021/09/26 00:24:17;;;;;;;32.80;29.13;;;;;;;;;;5008022;28;20403;-91
2021/09/26 00:26:44;;;;;;;32.30;28.80;;;;;;;;;;4996525;28;20475;-92
2021/09/26 00:29:13;;;;;;;32.30;28.90;;;;;;;;;;5008712;28;20415;-92
2021/09/26 00:31:40;;;;;;;31.42;28.08;;;;;;;;;;5019285;28;20408;-89
2021/09/26 00:34:07;;;;;;;32.22;28.83;;;;;;;;;;5005582;28;20418;-91
2021/09/26 00:36:33;;;;;;;35.35;30.92;;;;;;;;;;5011055;28;20770;-91
2021/09/26 00:39:00;;;;;;;33.83;29.98;;;;;;;;;;5006625;28;20421;-91
2021/09/26 00:41:27;;;;;;;34.95;29.48;;;;;;;;;;5000670;28;20494;-91
2021/09/26 00:43:54;;;;;;;34.60;30.00;;;;;;;;;;5007788;28;20418;-91
2021/09/26 00:46:23;;;;;;;34.60;29.98;;;;;;;;;;5007711;28;20465;-91
2021/09/26 00:48:50;;;;;;;34.30;30.10;;;;;;;;;;5009454;28;20412;-91
2021/09/26 00:51:18;;;;;;;33.35;29.75;;;;;;;;;;5009838;28;20419;-91
2021/09/26 00:53:46;;;;;;;36.77;29.50;;;;;;;;;;5014055;28;20413;-90
2021/09/26 00:56:13;;;;;;;37.80;30.23;;;;;;;;;;5007542;28;20847;-91
2021/09/26 00:58:40;;;;;;;32.30;28.77;;;;;;;;;;5010359;28;20423;-91
2021/09/26 01:01:07;;;;;;;34.53;28.52;;;;;;;;;;5009815;28;20442;-92
2021/09/26 01:03:35;;;;;;;32.75;28.90;;;;;;;;;;5009572;28;20402;-92
2021/09/26 01:06:12;;;;;;;32.53;29.03;;;;;;;;;;5001282;28;20411;-91
2021/09/26 01:08:46;;;;;;;32.97;28.63;;;;;;;;;;5007605;28;20410;-91
2021/09/26 01:11:17;;;;;;;35.70;29.38;;;;;;;;;;5001309;28;20424;-91
2021/09/26 01:13:57;;;;;;;33.65;29.35;;;;;;;;;;4998735;28;20417;-91
2021/09/26 01:16:30;;;;;;;32.63;29.10;;;;;;;;;;5012915;28;20897;-91
2021/09/26 01:19:14;;;;;;;32.58;29.05;;;;;;;;;;5006700;28;20502;-92
2021/09/26 01:21:45;;;;;;;36.88;30.27;;;;;;;;;;5008694;28;20454;-91
2021/09/26 01:24:46;;;;;;;33.28;29.65;;;;;;;;;;5002922;28;20408;-91
2021/09/26 01:27:36;;;;;;;35.38;30.77;;;;;;;;;;4965433;28;20438;-91
2021/09/26 01:30:33;;;;;;;34.45;30.55;;;;;;;;;;5010096;28;20421;-92
2021/09/26 01:33:04;;;;;;;34.17;29.33;;;;;;;;;;5009494;28;20403;-92
2021/09/26 01:35:31;;;;;;;34.78;29.63;;;;;;;;;;5004860;28;20419;-91
2021/09/26 01:38:07;;;;;;;34.33;29.27;;;;;;;;;;5005822;28;20429;-92
2021/09/26 01:40:42;;;;;;;33.95;28.63;;;;;;;;;;5009010;28;21274;-92
2021/09/26 01:43:13;;;;;;;33.45;29.13;;;;;;;;;;5009674;28;20418;-92
2021/09/26 01:45:47;;;;;;;33.65;28.98;;;;;;;;;;5002572;28;20417;-91
2021/09/26 01:48:18;;;;;;;31.73;28.33;;;;;;;;;;5004633;28;20411;-91
2021/09/26 01:50:48;;;;;;;32.08;28.65;;;;;;;;;;5007219;28;20424;-92
2021/09/26 01:53:16;;;;;;;31.95;28.50;;;;;;;;;;5001158;28;20403;-91
2021/09/26 01:55:44;;;;;;;32.38;28.58;;;;;;;;;;5003857;28;20413;-91
2021/09/26 01:58:11;;;;;;;34.37;29.67;;;;;;;;;;5001339;28;20415;-92
2021/09/26 02:00:40;;;;;;;34.75;29.48;;;;;;;;;;5009613;28;20407;-93
2021/09/26 02:03:09;;;;;;;32.50;29.00;;;;;;;;;;5004747;28;20447;-92
2021/09/26 02:05:40;;;;;;;36.83;29.10;;;;;;;;;;5003828;28;20752;-92
2021/09/26 02:08:08;;;;;;;32.72;28.83;;;;;;;;;;5001858;28;20510;-91
2021/09/26 02:10:36;;;;;;;32.03;28.63;;;;;;;;;;5006024;28;20431;-92
2021/09/26 02:13:06;;;;;;;30.65;27.35;;;;;;;;;;5007725;28;20466;-92
2021/09/26 02:15:34;;;;;;;31.98;28.08;;;;;;;;;;5006763;28;20985;-92
2021/09/26 02:18:04;;;;;;;34.17;28.52;;;;;;;;;;5009471;28;20423;-92
2021/09/26 02:20:32;;;;;;;31.33;27.42;;;;;;;;;;5010267;28;20474;-90
2021/09/26 02:23:00;;;;;;;31.02;27.33;;;;;;;;;;5010051;28;20899;-92
2021/09/26 02:25:28;;;;;;;31.05;27.20;;;;;;;;;;5009769;28;20411;-92
2021/09/26 02:27:55;;;;;;;31.63;27.20;;;;;;;;;;5015337;28;20434;-92
2021/09/26 02:30:24;;;;;;;30.23;26.98;;;;;;;;;;5010977;28;20397;-92
2021/09/26 02:32:51;;;;;;;29.67;26.55;;;;;;;;;;5022685;28;21025;-93
2021/09/26 02:35:18;;;;;;;31.42;27.30;;;;;;;;;;5009083;28;20402;-92
2021/09/26 02:37:46;;;;;;;29.80;26.67;;;;;;;;;;5014133;28;20422;-92
2021/09/26 02:40:15;;;;;;;31.00;26.90;;;;;;;;;;5007551;28;20403;-92
2021/09/26 02:42:50;;;;;;;30.80;26.25;;;;;;;;;;5008104;28;20481;-92
2021/09/26 02:45:21;;;;;;;30.02;26.90;;;;;;;;;;5000448;28;20572;-92
2021/09/26 02:47:52;;;;;;;30.60;26.17;;;;;;;;;;5006258;28;20437;-92
2021/09/26 02:50:33;;;;;;;37.08;27.17;;;;;;;;;;5001902;28;20403;-92
2021/09/26 02:53:02;;;;;;;32.92;26.33;;;;;;;;;;4999468;28;20810;-92
2021/09/26 02:55:30;;;;;;;30.15;26.85;;;;;;;;;;4994385;28;20471;-92
2021/09/26 02:57:57;;;;;;;28.13;25.15;;;;;;;;;;5007097;28;20409;-93
2021/09/26 03:00:31;;;;;;;34.03;26.33;;;;;;;;;;5004534;28;20420;-93
2021/09/26 03:03:05;;;;;;;28.33;25.33;;;;;;;;;;5008744;28;20934;-93
2021/09/26 03:05:32;;;;;;;28.55;25.52;;;;;;;;;;4995860;28;20420;-92
2021/09/26 03:08:01;;;;;;;30.30;27.00;;;;;;;;;;5005485;28;20404;-92
2021/09/26 03:10:28;;;;;;;28.95;25.95;;;;;;;;;;5008629;28;20407;-93
2021/09/26 03:12:55;;;;;;;28.65;25.55;;;;;;;;;;4990944;28;20416;-93
2021/09/26 03:15:22;;;;;;;28.80;25.65;;;;;;;;;;5002221;28;20422;-93
2021/09/26 03:17:49;;;;;;;28.48;25.48;;;;;;;;;;5005474;28;20418;-93
2021/09/26 03:20:16;;;;;;;29.42;25.27;;;;;;;;;;4998285;28;20409;-92
2021/09/26 03:22:44;;;;;;;28.27;24.88;;;;;;;;;;5005022;28;20420;-93
2021/09/26 03:25:13;;;;;;;29.02;25.23;;;;;;;;;;5006995;28;20418;-93
2021/09/26 03:27:41;;;;;;;29.37;25.70;;;;;;;;;;5007913;28;20414;-93
2021/09/26 03:30:09;;;;;;;29.23;26.02;;;;;;;;;;5008859;28;20412;-93
2021/09/26 03:32:36;;;;;;;29.20;26.20;;;;;;;;;;5002618;28;20414;-92
2021/09/26 03:35:04;;;;;;;29.17;25.33;;;;;;;;;;5008045;28;20503;-93
2021/09/26 03:37:31;;;;;;;28.25;25.27;;;;;;;;;;5001075;28;20882;-93
2021/09/26 03:39:58;;;;;;;30.08;25.30;;;;;;;;;;5005420;28;20417;-93
2021/09/26 03:42:26;;;;;;;28.85;25.80;;;;;;;;;;5010917;28;20421;-92
2021/09/26 03:44:53;;;;;;;27.87;24.87;;;;;;;;;;5007999;28;20441;-92
2021/09/26 03:47:20;;;;;;;27.83;24.92;;;;;;;;;;4998873;28;20411;-92
2021/09/26 03:49:47;;;;;;;28.67;25.58;;;;;;;;;;5008044;28;20898;-93
2021/09/26 03:52:14;;;;;;;28.52;24.60;;;;;;;;;;5011686;28;20534;-92
2021/09/26 03:54:44;;;;;;;27.88;24.27;;;;;;;;;;5016743;28;20421;-93
2021/09/26 03:57:11;;;;;;;28.97;25.67;;;;;;;;;;5008487;28;20415;-93
2021/09/26 03:59:39;;;;;;;28.60;24.43;;;;;;;;;;5009228;28;20425;-92
2021/09/26 04:02:07;;;;;;;31.77;25.55;;;;;;;;;;5007868;28;20422;-93
2021/09/26 04:04:34;;;;;;;31.27;25.65;;;;;;;;;;5011953;28;20405;-93
2021/09/26 04:07:01;;;;;;;29.65;25.13;;;;;;;;;;5012570;28;20409;-93
2021/09/26 04:09:28;;;;;;;27.17;24.27;;;;;;;;;;5012264;28;20870;-92
2021/09/26 04:11:55;;;;;;;27.83;24.70;;;;;;;;;;5016515;28;20925;-92
2021/09/26 04:14:22;;;;;;;27.73;24.73;;;;;;;;;;5008378;28;20402;-92
2021/09/26 04:16:52;;;;;;;30.40;26.10;;;;;;;;;;5026316;28;20403;-93
2021/09/26 04:19:19;;;;;;;30.17;26.17;;;;;;;;;;5019897;28;20427;-93
2021/09/26 04:21:50;;;;;;;29.93;26.73;;;;;;;;;;5028069;28;20391;-92
2021/09/26 04:24:18;;;;;;;29.37;26.07;;;;;;;;;;5027603;28;20495;-93
2021/09/26 04:26:45;;;;;;;31.38;26.80;;;;;;;;;;5004679;28;20419;-93
2021/09/26 04:29:12;;;;;;;29.25;26.05;;;;;;;;;;5002579;28;20424;-92
2021/09/26 04:31:39;;;;;;;30.73;27.25;;;;;;;;;;5002525;28;20482;-93
2021/09/26 04:34:08;;;;;;;31.05;27.35;;;;;;;;;;5002226;28;20426;-92
2021/09/26 04:36:35;;;;;;;29.48;26.38;;;;;;;;;;4998154;28;20409;-93
2021/09/26 04:39:02;;;;;;;30.02;26.33;;;;;;;;;;5010192;28;20998;-92
2021/09/26 04:41:29;;;;;;;30.15;26.83;;;;;;;;;;4997548;28;20419;-92
2021/09/26 04:43:56;;;;;;;30.13;26.75;;;;;;;;;;5003414;28;20406;-92
2021/09/26 04:46:23;;;;;;;31.65;27.83;;;;;;;;;;5005255;28;20412;-92
2021/09/26 04:48:50;;;;;;;34.10;29.15;;;;;;;;;;4998286;28;20749;-93
2021/09/26 04:51:18;;;;;;;32.42;28.83;;;;;;;;;;5004200;28;20752;-92
2021/09/26 04:53:45;;;;;;;34.05;30.35;;;;;;;;;;5004788;28;20424;-93
2021/09/26 04:56:14;;;;;;;35.97;30.10;;;;;;;;;;5013347;28;20418;-93
2021/09/26 04:58:41;;;;;;;33.58;29.90;;;;;;;;;;5011338;28;20790;-93
2021/09/26 05:01:07;;;;;;;38.70;31.80;;;;;;;;;;5009113;28;20407;-93
2021/09/26 05:03:34;;;;;;;34.28;30.55;;;;;;;;;;5007951;28;20894;-93
2021/09/26 05:06:01;;;;;;;37.35;31.77;;;;;;;;;;5010395;28;20391;-93
2021/09/26 05:08:29;;;;;;;35.80;31.90;;;;;;;;;;5008949;28;20399;-93
2021/09/26 05:10:56;;;;;;;36.17;31.23;;;;;;;;;;5008925;28;20419;-93
2021/09/26 05:13:23;;;;;;;36.50;31.23;;;;;;;;;;5010531;28;20418;-93
2021/09/26 05:15:50;;;;;;;35.95;30.98;;;;;;;;;;5008121;28;20895;-92
2021/09/26 05:18:17;;;;;;;33.45;29.25;;;;;;;;;;5008988;28;20422;-92
2021/09/26 05:20:45;;;;;;;34.80;30.15;;;;;;;;;;5000003;28;20491;-91
2021/09/26 05:23:12;;;;;;;33.58;30.02;;;;;;;;;;5003522;28;20412;-92
2021/09/26 05:25:40;;;;;;;32.65;29.23;;;;;;;;;;4996452;28;20413;-93
2021/09/26 05:28:07;;;;;;;33.08;29.45;;;;;;;;;;5005948;28;20400;-93
2021/09/26 05:30:35;;;;;;;35.67;29.70;;;;;;;;;;5001688;28;20417;-93
2021/09/26 05:33:02;;;;;;;33.60;29.95;;;;;;;;;;5009588;28;20399;-92
2021/09/26 05:35:29;;;;;;;34.53;29.93;;;;;;;;;;5009419;28;20416;-93
2021/09/26 05:37:56;;;;;;;32.83;29.33;;;;;;;;;;5005716;28;20423;-92
2021/09/26 05:40:24;;;;;;;34.38;30.08;;;;;;;;;;5012209;28;20433;-93
2021/09/26 05:42:53;;;;;;;34.58;30.08;;;;;;;;;;4997136;28;20498;-93
2021/09/26 05:45:19;;;;;;;33.80;29.83;;;;;;;;;;5002962;28;20438;-93
2021/09/26 05:47:46;;;;;;;33.22;29.58;;;;;;;;;;4996831;28;20416;-93
2021/09/26 05:50:13;;;;;;;34.33;29.65;;;;;;;;;;5009098;28;20416;-93
2021/09/26 05:52:41;;;;;;;34.25;29.70;;;;;;;;;;5006888;28;20775;-93
2021/09/26 05:55:08;;;;;;;33.35;29.73;;;;;;;;;;5009778;28;20410;-93
2021/09/26 05:57:36;;;;;;;30.10;26.92;;;;;;;;;;5005837;28;20419;-93
2021/09/26 06:00:07;;;;;;;31.92;28.52;;;;;;;;;;5005113;28;20927;-93
2021/09/26 06:02:36;;;;;;;31.50;28.10;;;;;;;;;;5004071;28;20412;-92
2021/09/26 06:05:05;;;;;;;30.73;27.35;;;;;;;;;;5006314;28;20433;-93
2021/09/26 06:07:32;;;;;;;32.30;27.27;;;;;;;;;;5002879;28;20453;-93
2021/09/26 06:09:59;;;;;;;29.92;26.85;;;;;;;;;;5008310;28;20431;-93
2021/09/26 06:12:26;;;;;;;29.37;25.83;;;;;;;;;;5005286;28;20423;-93
2021/09/26 06:14:53;;;;;;;30.50;26.40;;;;;;;;;;5000680;28;20421;-92
2021/09/26 06:17:23;;;;;;;30.27;26.98;;;;;;;;;;5006162;28;20415;-92
2021/09/26 06:19:52;;;;;;;29.90;26.67;;;;;;;;;;4999410;28;20444;-93
2021/09/26 06:22:20;;;;;;;29.37;26.20;;;;;;;;;;5004967;28;20511;-92
2021/09/26 06:24:47;;;;;;;29.10;25.98;;;;;;;;;;5008193;28;20447;-92
2021/09/26 06:27:14;;;;;;;29.02;25.83;;;;;;;;;;5003854;28;20522;-94
2021/09/26 06:29:41;;;;;;;30.50;25.73;;;;;;;;;;5003317;28;20697;-92
2021/09/26 06:32:09;;;;;;;28.75;25.55;;;;;;;;;;4996789;28;20419;-92
2021/09/26 06:34:37;;;;;;;28.40;25.25;;;;;;;;;;5010722;28;20418;-92
2021/09/26 06:37:05;;;;;;;30.63;25.35;;;;;;;;;;5007572;28;20973;-93
2021/09/26 06:39:36;;;;;;;27.50;24.58;;;;;;;;;;5007846;28;20658;-93
2021/09/26 06:42:04;;;;;;;29.45;25.17;;;;;;;;;;5003454;28;20416;-93
2021/09/26 06:44:31;;;;;;;30.00;26.05;;;;;;;;;;4995798;28;20407;-93
2021/09/26 06:46:58;;;;;;;28.70;25.70;;;;;;;;;;5001264;28;20415;-94
2021/09/26 06:49:25;;;;;;;28.70;25.58;;;;;;;;;;5005811;28;20408;-93
2021/09/26 06:51:53;;;;;;;27.60;24.55;;;;;;;;;;5006410;28;20414;-93
2021/09/26 06:54:20;;;;;;;28.42;25.40;;;;;;;;;;5001357;28;20500;-93
2021/09/26 06:56:47;;;;;;;31.00;25.08;;;;;;;;;;5006196;28;20443;-92
2021/09/26 07:01:55;;;;;;;28.13;25.00;;;;;;;;;;4991057;28;20415;-93
2021/09/26 07:04:22;;;;;;;27.13;24.20;;;;;;;;;;4998939;28;20423;-93
2021/09/26 07:06:49;;;;;;;30.10;25.23;;;;;;;;;;5001091;28;20431;-92
2021/09/26 07:09:18;;;;;;;27.98;24.58;;;;;;;;;;5001447;28;20414;-93
2021/09/26 07:11:45;;;;;;;28.20;24.83;;;;;;;;;;4998420;28;20416;-94
2021/09/26 07:14:12;;;;;;;27.80;24.80;;;;;;;;;;5006819;28;20429;-93
2021/09/26 07:16:39;;;;;;;29.20;24.95;;;;;;;;;;5002254;28;20409;-93
2021/09/26 07:19:06;;;;;;;27.42;24.48;;;;;;;;;;5005923;28;20406;-94
2021/09/26 07:21:33;;;;;;;31.48;24.75;;;;;;;;;;5001121;28;21206;-84
2021/09/26 07:24:00;;;;;;;27.40;24.35;;;;;;;;;;4997112;28;20401;-83
2021/09/26 07:26:29;;;;;;;30.13;25.40;;;;;;;;;;5002684;28;20427;-90
2021/09/26 07:28:55;;;;;;;28.40;24.55;;;;;;;;;;5007328;28;20502;-90
2021/09/26 07:31:26;;;;;;;30.27;25.95;;;;;;;;;;5012854;28;20418;-96
2021/09/26 07:33:53;;;;;;;30.83;25.40;;;;;;;;;;5006688;28;20902;-90
2021/09/26 07:36:20;;;;;;;29.02;24.42;;;;;;;;;;5007662;28;20419;-91
2021/09/26 07:38:47;;;;;;;32.08;27.58;;;;;;;;;;5008245;28;20858;-91
2021/09/26 07:41:14;;;;;;;29.88;26.67;;;;;;;;;;5007734;28;20442;-90
2021/09/26 07:43:42;;;;;;;31.17;25.80;;;;;;;;;;5006787;28;20422;-90
2021/09/26 07:46:09;;;;;;;30.27;25.42;;;;;;;;;;5012265;28;20422;-92
2021/09/26 07:48:36;;;;;;;30.52;25.38;;;;;;;;;;5014866;28;20402;-91
2021/09/26 07:51:03;;;;;;;31.00;25.20;;;;;;;;;;5004337;28;20426;-91
2021/09/26 07:53:30;;;;;;;31.33;25.80;;;;;;;;;;5009796;28;20403;-91
2021/09/26 07:55:57;;;;;;;29.27;25.80;;;;;;;;;;5011024;28;21165;-91
2021/09/26 07:58:25;;;;;;;33.33;25.85;;;;;;;;;;5009526;28;20446;-91
2021/09/26 08:00:54;;;;;;;30.08;24.85;;;;;;;;;;5008903;28;20514;-91
2021/09/26 08:03:21;;;;;;;30.80;25.80;;;;;;;;;;5011718;28;20395;-91
2021/09/26 08:05:48;;;;;;;27.98;24.48;;;;;;;;;;5013797;28;20416;-91
2021/09/26 08:08:15;;;;;;;26.80;23.40;;;;;;;;;;5010994;28;20409;-89
2021/09/26 08:10:42;;;;;;;27.25;23.55;;;;;;;;;;5018480;28;20432;-90
2021/09/26 08:13:09;;;;;;;27.23;23.92;;;;;;;;;;5006012;28;20407;-91
2021/09/26 08:15:36;;;;;;;29.23;22.85;;;;;;;;;;5012252;28;20411;-91
2021/09/26 08:18:04;;;;;;;29.17;23.52;;;;;;;;;;5020321;28;20393;-90
2021/09/26 08:20:31;;;;;;;23.02;19.77;;;;;;;;;;5032584;28;20441;-91
2021/09/26 08:22:59;;;;;;;26.15;21.77;;;;;;;;;;5030836;28;20404;-91
2021/09/26 08:25:25;;;;;;;25.77;22.17;;;;;;;;;;5017229;28;20592;-90
2021/09/26 08:27:53;;;;;;;26.92;22.77;;;;;;;;;;5008505;28;20411;-90
2021/09/26 08:30:20;;;;;;;28.23;22.80;;;;;;;;;;5006558;28;20415;-89
2021/09/26 08:32:49;;;;;;;25.35;21.67;;;;;;;;;;5005462;28;20438;-91
2021/09/26 08:35:18;;;;;;;27.05;22.08;;;;;;;;;;5009766;28;20973;-91
2021/09/26 08:37:45;;;;;;;28.77;23.35;;;;;;;;;;5009231;28;20733;-91
2021/09/26 08:40:13;;;;;;;30.70;22.55;;;;;;;;;;5008276;28;20411;-90
2021/09/26 08:42:41;;;;;;;25.65;22.33;;;;;;;;;;5008462;28;20407;-89
2021/09/26 08:45:12;;;;;;;25.83;21.60;;;;;;;;;;4997461;28;20417;-90
2021/09/26 08:47:40;;;;;;;25.20;21.70;;;;;;;;;;5006593;28;20418;-90
2021/09/26 08:50:11;;;;;;;25.17;22.38;;;;;;;;;;5009557;28;20498;-91
2021/09/26 08:52:41;;;;;;;27.13;22.08;;;;;;;;;;5010065;28;20403;-90
2021/09/26 08:55:09;;;;;;;25.27;20.60;;;;;;;;;;5009757;28;20411;-90
2021/09/26 08:57:36;;;;;;;26.55;21.63;;;;;;;;;;5007589;28;20403;-90
2021/09/26 09:00:05;;;;;;;22.23;19.80;;;;;;;;;;5009693;28;20907;-90
2021/09/26 09:02:32;;;;;;;25.80;20.67;;;;;;;;;;5009188;28;20782;-90
2021/09/26 09:04:59;;;;;;;24.13;18.75;;;;;;;;;;5009264;28;20421;-90
2021/09/26 09:07:26;;;;;;;22.00;19.13;;;;;;;;;;5014728;28;20404;-90
2021/09/26 09:09:57;;;;;;;19.30;16.85;;;;;;;;;;5016439;28;20493;-90
2021/09/26 09:12:28;;;;;;;20.13;17.95;;;;;;;;;;5009308;28;20418;-90
2021/09/26 09:14:58;;;;;;;22.63;17.33;;;;;;;;;;5008363;28;20485;-90
2021/09/26 09:17:32;;;;;;;22.00;17.50;;;;;;;;;;5008252;28;20763;-90
2021/09/26 09:20:22;;;;;;;20.45;18.25;;;;;;;;;;5017450;28;20466;-90
2021/09/26 09:22:53;;;;;;;23.02;19.65;;;;;;;;;;5011157;28;20965;-91
2021/09/26 09:25:39;;;;;;;23.23;20.05;;;;;;;;;;5006873;28;20399;-90
2021/09/26 09:28:08;;;;;;;23.65;20.13;;;;;;;;;;5002218;28;20417;-90
2021/09/26 09:30:39;;;;;;;24.25;21.05;;;;;;;;;;4998728;28;20395;-81
2021/09/26 09:33:06;;;;;;;23.02;19.92;;;;;;;;;;4999791;28;20399;-88
2021/09/26 09:35:38;;;;;;;22.52;19.90;;;;;;;;;;5008054;28;20411;-88
2021/09/26 09:38:06;;;;;;;24.58;19.30;;;;;;;;;;5004458;28;20407;-93
2021/09/26 09:40:34;;;;;;;21.95;18.70;;;;;;;;;;5008147;28;20411;-89
2021/09/26 09:43:01;;;;;;;22.02;18.20;;;;;;;;;;5011718;28;20410;-90
2021/09/26 09:45:30;;;;;;;24.48;20.13;;;;;;;;;;4997883;28;20416;-85
2021/09/26 09:48:12;;;;;;;22.73;19.10;;;;;;;;;;5007332;28;20444;-88
2021/09/26 09:50:43;;;;;;;22.98;19.33;;;;;;;;;;4999431;28;20401;-90
2021/09/26 09:53:19;;;;;;;21.07;18.10;;;;;;;;;;5002884;28;20887;-88
2021/09/26 09:55:56;;;;;;;22.85;17.40;;;;;;;;;;5000667;28;20412;-90
2021/09/26 09:58:23;;;;;;;23.55;17.40;;;;;;;;;;5005015;28;20471;-91
2021/09/26 10:00:52;;;;;;;19.52;16.63;;;;;;;;;;5005091;28;20830;-90
2021/09/26 10:03:47;;;;;;;20.10;16.30;;;;;;;;;;5000542;28;20415;-91
2021/09/26 10:06:36;;;;;;;18.90;15.65;;;;;;;;;;4999949;28;20415;-91
2021/09/26 10:09:17;;;;;;;17.50;14.40;;;;;;;;;;5000183;28;20419;-90
2021/09/26 10:11:47;;;;;;;19.48;15.75;;;;;;;;;;4993672;28;20424;-90
2021/09/26 10:14:14;;;;;;;17.03;15.00;;;;;;;;;;4994798;28;20481;-91
2021/09/26 10:16:42;;;;;;;15.45;13.77;;;;;;;;;;4995808;28;20876;-90
2021/09/26 10:19:09;;;;;;;17.50;14.88;;;;;;;;;;5003060;28;20438;-91
2021/09/26 10:21:37;;;;;;;15.80;14.07;;;;;;;;;;4999606;28;20656;-90
2021/09/26 10:24:06;;;;;;;17.00;14.43;;;;;;;;;;5000897;28;20399;-90
2021/09/26 10:26:33;;;;;;;19.00;14.90;;;;;;;;;;5002548;28;20422;-90
2021/09/26 10:29:02;;;;;;;17.23;14.03;;;;;;;;;;4999297;28;20508;-91
2021/09/26 10:31:30;;;;;;;17.95;14.60;;;;;;;;;;5002741;28;20635;-89
2021/09/26 10:34:00;;;;;;;16.57;13.80;;;;;;;;;;5006115;28;20454;-90
2021/09/26 10:36:31;;;;;;;16.13;13.38;;;;;;;;;;5004663;28;23409;-90
2021/09/26 10:38:59;;;;;;;16.55;13.60;;;;;;;;;;5003457;28;20689;-90
2021/09/26 10:41:26;;;;;;;15.52;13.20;;;;;;;;;;5001058;28;20433;-91
2021/09/26 10:43:54;;;;;;;14.90;13.32;;;;;;;;;;4999802;28;20418;-90
2021/09/26 10:46:27;;;;;;;16.10;13.70;;;;;;;;;;5002580;28;20933;-91
2021/09/26 10:49:05;;;;;;;14.88;12.50;;;;;;;;;;5002445;28;20403;-90
2021/09/26 10:51:49;;;;;;;14.40;12.90;;;;;;;;;;5006147;28;20668;-90
2021/09/26 10:54:40;;;;;;;13.80;12.40;;;;;;;;;;5005623;28;20419;-90
2021/09/26 10:57:28;;;;;;;15.40;13.73;;;;;;;;;;4976196;28;20416;-90
2021/09/26 10:59:58;;;;;;;15.05;13.38;;;;;;;;;;4999981;28;20456;-90
2021/09/26 11:02:40;;;;;;;16.95;13.18;;;;;;;;;;5004781;28;20477;-90
2021/09/26 11:05:24;;;;;;;15.32;13.43;;;;;;;;;;5001658;28;20454;-90
2021/09/26 11:07:51;;;;;;;15.32;13.73;;;;;;;;;;5001553;28;20660;-90
2021/09/26 11:10:18;;;;;;;14.68;13.13;;;;;;;;;;4996974;28;20405;-91
2021/09/26 11:12:48;;;;;;;14.85;13.27;;;;;;;;;;5003519;28;20811;-91
2021/09/26 11:15:17;;;;;;;14.40;12.90;;;;;;;;;;5003340;28;20431;-91
2021/09/26 11:17:47;;;;;;;14.48;12.88;;;;;;;;;;5001913;28;20402;-90
2021/09/26 11:20:43;;;;;;;16.88;14.65;;;;;;;;;;5001634;28;20411;-91
2021/09/26 11:23:36;;;;;;;16.42;13.88;;;;;;;;;;5010137;28;20453;-91
2021/09/26 11:26:04;;;;;;;15.30;13.73;;;;;;;;;;5000957;28;20497;-90
2021/09/26 11:28:34;;;;;;;16.80;14.00;;;;;;;;;;5002978;28;20953;-89
2021/09/26 11:31:34;;;;;;;16.65;13.88;;;;;;;;;;4999914;28;20403;-91
2021/09/26 11:34:03;;;;;;;16.85;14.68;;;;;;;;;;5001876;28;20406;-91
2021/09/26 11:36:30;;;;;;;15.70;14.07;;;;;;;;;;4999667;28;20418;-91
2021/09/26 11:38:58;;;;;;;14.93;13.33;;;;;;;;;;4997540;28;20415;-91
2021/09/26 11:41:35;;;;;;;15.48;13.88;;;;;;;;;;4996069;28;20415;-91
2021/09/26 11:44:04;;;;;;;14.98;13.52;;;;;;;;;;4998705;28;20735;-90
2021/09/26 11:46:32;;;;;;;16.25;14.20;;;;;;;;;;4998957;28;20405;-91
2021/09/26 11:49:03;;;;;;;15.25;13.65;;;;;;;;;;4994413;28;20411;-90
2021/09/26 11:51:31;;;;;;;15.63;14.02;;;;;;;;;;4996890;28;20433;-90
2021/09/26 11:53:59;;;;;;;15.52;13.50;;;;;;;;;;4993794;28;20430;-91
2021/09/26 11:56:28;;;;;;;15.88;13.65;;;;;;;;;;5001484;28;20407;-91
2021/09/26 11:58:57;;;;;;;15.00;13.25;;;;;;;;;;5001361;28;20414;-90
2021/09/26 12:01:43;;;;;;;15.15;13.63;;;;;;;;;;4998616;28;20415;-91
2021/09/26 12:04:17;;;;;;;15.52;13.48;;;;;;;;;;4998891;28;20407;-90
2021/09/26 12:06:47;;;;;;;14.43;13.03;;;;;;;;;;4994935;28;20780;-90
2021/09/26 12:09:33;;;;;;;14.60;13.00;;;;;;;;;;5001977;28;20491;-90
2021/09/26 12:12:02;;;;;;;17.70;13.95;;;;;;;;;;5003017;28;20443;-91
2021/09/26 12:14:30;;;;;;;14.63;13.13;;;;;;;;;;4996147;28;20438;-90
2021/09/26 12:16:59;;;;;;;15.18;13.57;;;;;;;;;;4995092;28;20403;-91
2021/09/26 12:19:27;;;;;;;15.65;13.88;;;;;;;;;;4999222;28;20434;-90
2021/09/26 12:22:03;;;;;;;15.75;14.02;;;;;;;;;;4998543;28;20424;-91
2021/09/26 12:24:39;;;;;;;16.48;13.60;;;;;;;;;;5004315;28;20756;-91
2021/09/26 12:27:19;;;;;;;14.95;12.40;;;;;;;;;;5005577;28;20407;-90
2021/09/26 12:29:57;;;;;;;14.52;13.00;;;;;;;;;;5003548;28;20418;-91
2021/09/26 12:32:26;;;;;;;13.98;12.07;;;;;;;;;;5004866;28;20467;-90
2021/09/26 12:34:55;;;;;;;13.80;12.13;;;;;;;;;;5007823;28;20418;-90
2021/09/26 12:37:25;;;;;;;13.52;11.98;;;;;;;;;;5002609;28;20407;-90
2021/09/26 12:39:56;;;;;;;15.30;12.63;;;;;;;;;;4998186;28;20418;-90
2021/09/26 12:42:25;;;;;;;18.33;13.77;;;;;;;;;;5002852;28;20804;-90
2021/09/26 12:44:52;;;;;;;16.58;12.50;;;;;;;;;;5006196;28;20407;-90
2021/09/26 12:47:22;;;;;;;14.60;13.10;;;;;;;;;;5000659;28;20498;-90
2021/09/26 12:49:50;;;;;;;15.00;13.00;;;;;;;;;;5004092;28;20424;-91
2021/09/26 12:52:22;;;;;;;15.37;13.77;;;;;;;;;;5004033;28;20457;-90
2021/09/26 12:54:52;;;;;;;14.80;13.30;;;;;;;;;;5006348;28;20883;-91
2021/09/26 12:57:24;;;;;;;17.65;14.68;;;;;;;;;;5004805;28;20679;-91
2021/09/26 12:59:53;;;;;;;16.17;14.57;;;;;;;;;;5003148;28;20435;-90
2021/09/26 13:02:23;;;;;;;20.25;16.63;;;;;;;;;;5004319;28;20436;-91
2021/09/26 13:05:01;;;;;;;20.90;18.30;;;;;;;;;;5005265;28;20907;-90
2021/09/26 13:07:30;;;;;;;21.33;18.27;;;;;;;;;;5004250;28;20510;-90
2021/09/26 13:09:59;;;;;;;19.85;17.65;;;;;;;;;;5008417;28;20815;-91
2021/09/26 13:12:30;;;;;;;20.02;16.65;;;;;;;;;;5010211;28;20407;-90
2021/09/26 13:15:13;;;;;;;19.10;16.30;;;;;;;;;;5006325;28;21149;-90
2021/09/26 13:17:41;;;;;;;16.55;14.95;;;;;;;;;;5019694;28;20414;-90
2021/09/26 13:20:19;;;;;;;18.35;16.35;;;;;;;;;;5014765;28;20404;-89
2021/09/26 13:22:46;;;;;;;18.02;16.13;;;;;;;;;;5024736;28;20414;-90
2021/09/26 13:25:28;;;;;;;18.92;15.70;;;;;;;;;;5016769;28;20401;-92
2021/09/26 13:28:01;;;;;;;17.45;15.65;;;;;;;;;;5000685;28;20424;-91
2021/09/26 13:30:32;;;;;;;17.05;14.77;;;;;;;;;;4999545;28;20416;-92
2021/09/26 13:33:03;;;;;;;17.90;15.00;;;;;;;;;;4998766;28;20816;-91
2021/09/26 13:35:33;;;;;;;18.55;15.52;;;;;;;;;;5002361;28;20443;-91
2021/09/26 13:38:16;;;;;;;21.23;16.38;;;;;;;;;;5001204;28;20404;-90
2021/09/26 13:40:45;;;;;;;20.13;17.75;;;;;;;;;;4999056;28;20411;-90
2021/09/26 13:43:31;;;;;;;20.25;16.98;;;;;;;;;;4995280;28;20427;-90
2021/09/26 13:45:58;;;;;;;20.75;18.50;;;;;;;;;;5003011;28;20405;-90
2021/09/26 13:48:25;;;;;;;21.17;18.60;;;;;;;;;;5005070;28;20403;-89
2021/09/26 13:50:52;;;;;;;20.55;18.00;;;;;;;;;;4998156;28;20511;-89
2021/09/26 13:53:21;;;;;;;21.60;18.63;;;;;;;;;;5002876;28;20407;-89
2021/09/26 13:55:48;;;;;;;26.45;20.27;;;;;;;;;;5006504;28;20769;-89
2021/09/26 13:58:16;;;;;;;23.60;20.05;;;;;;;;;;5004303;28;20760;-87
2021/09/26 14:00:46;;;;;;;22.67;18.88;;;;;;;;;;5002010;28;20415;-87
2021/09/26 14:03:13;;;;;;;24.20;19.10;;;;;;;;;;5001622;28;20419;-86
2021/09/26 14:05:40;;;;;;;26.45;18.45;;;;;;;;;;4996073;28;20410;-88
2021/09/26 14:08:07;;;;;;;22.02;19.23;;;;;;;;;;5002578;28;20807;-89
2021/09/26 14:10:34;;;;;;;24.27;20.05;;;;;;;;;;5003570;28;20419;-87
2021/09/26 14:13:04;;;;;;;28.23;20.52;;;;;;;;;;5000417;28;20434;-89
2021/09/26 14:15:32;;;;;;;24.67;21.10;;;;;;;;;;4998411;28;20427;-89
2021/09/26 14:18:01;;;;;;;22.93;19.93;;;;;;;;;;5000898;28;20403;-87
2021/09/26 14:20:30;;;;;;;26.30;21.48;;;;;;;;;;4999461;28;20804;-89
2021/09/26 14:22:57;;;;;;;23.87;20.87;;;;;;;;;;4999086;28;20468;-89
2021/09/26 14:25:24;;;;;;;22.67;19.85;;;;;;;;;;5002348;28;20410;-87
2021/09/26 14:27:52;;;;;;;23.75;21.27;;;;;;;;;;4998630;28;20475;-88
2021/09/26 14:30:19;;;;;;;24.58;21.95;;;;;;;;;;5005621;28;20775;-87
2021/09/26 14:32:46;;;;;;;25.75;21.83;;;;;;;;;;4997009;28;20428;-89
2021/09/26 14:35:15;;;;;;;25.47;22.63;;;;;;;;;;5000384;28;20426;-89